Startpagina
METAR-TAF:

METAR-TAF

Vliegvelden :

Antwerpen, België

Internationale Luchthaven Antwerpen

breedte: 51-12N, lengte: 004-28E, hoogte: 12 m

Actueel weer

Dit bericht is 21 minuten geleden gemaakt, om 02:50 UTC
Wind 7 kt uit het westzuidwesten
Temperatuur 16°C
Vochtigheid 88%
Druk 1015 hPa
Zicht 10 km of meer

METAR: EBAW 240250Z AUTO 24007KT 9999 // FEW007/// SCT009/// BKN010/// 16/14 Q1015

Tijdstip: 05:11 (03:11 UTC)

Verwachting

Dit bericht is 1 uur en het 1 minuten geleden gemaakt, om 02:10 UTC
Verwachting geldig van 24 om 03 UTC tot 24 om 12 UTC
Wind 7 kt uit het westzuidwesten
Zicht 10 km of meer
Verspreide wolken op 2500 ft

TAF: EBAW 240210Z 2403/2412 25007KT 9999 SCT025

Waarnemingen en weersverwachtingen van meer dan 4000 vliegvelden (METAR en TAF).

De beschikbare stations zijn de gele en rode punten op de kaart.

Ga met uw muis naar het station om de naam te zien.

Klik dan om waarnemingen en weersverwachtingen te zien.

kaart wijzigen: klik op de groene knoppen met een zwart kruis om in te zoomen, op de groene knop met een streepje om uit te zoomen of op de groene pijlen voor aangrenzende kaarten.


METAR-TAF: